sensor_id;sensor_type;location;lat;lon;timestamp;P1;durP1;ratioP1;P2;durP2;ratioP2
78183;SDS011;67442;44.570;18.610;2023-04-19T00:02:14;23.85;;;10.00;;
78183;SDS011;67442;44.570;18.610;2023-04-19T00:04:43;24.40;;;9.35;;
78183;SDS011;67442;44.570;18.610;2023-04-19T00:07:10;23.38;;;10.13;;
78183;SDS011;67442;44.570;18.610;2023-04-19T00:09:38;22.17;;;9.15;;
78183;SDS011;67442;44.570;18.610;2023-04-19T00:12:05;20.08;;;9.32;;
78183;SDS011;67442;44.570;18.610;2023-04-19T00:14:33;21.45;;;10.32;;
78183;SDS011;67442;44.570;18.610;2023-04-19T00:17:04;26.63;;;9.55;;
78183;SDS011;67442;44.570;18.610;2023-04-19T00:19:31;26.15;;;10.23;;
78183;SDS011;67442;44.570;18.610;2023-04-19T00:21:59;21.00;;;9.07;;
78183;SDS011;67442;44.570;18.610;2023-04-19T00:24:26;18.70;;;9.52;;
78183;SDS011;67442;44.570;18.610;2023-04-19T00:26:53;20.83;;;8.73;;
78183;SDS011;67442;44.570;18.610;2023-04-19T00:29:21;20.80;;;9.07;;
78183;SDS011;67442;44.570;18.610;2023-04-19T00:31:49;23.45;;;10.30;;
78183;SDS011;67442;44.570;18.610;2023-04-19T00:34:20;20.17;;;10.07;;
78183;SDS011;67442;44.570;18.610;2023-04-19T00:36:47;19.58;;;9.18;;
78183;SDS011;67442;44.570;18.610;2023-04-19T00:39:18;23.52;;;9.90;;
78183;SDS011;67442;44.570;18.610;2023-04-19T00:41:45;23.90;;;10.10;;
78183;SDS011;67442;44.570;18.610;2023-04-19T00:44:13;23.27;;;9.95;;
78183;SDS011;67442;44.570;18.610;2023-04-19T00:46:40;22.55;;;9.45;;
78183;SDS011;67442;44.570;18.610;2023-04-19T00:49:12;18.83;;;8.88;;
78183;SDS011;67442;44.570;18.610;2023-04-19T00:51:39;19.45;;;9.10;;
78183;SDS011;67442;44.570;18.610;2023-04-19T00:54:06;20.80;;;9.30;;
78183;SDS011;67442;44.570;18.610;2023-04-19T00:56:34;16.88;;;8.88;;
78183;SDS011;67442;44.570;18.610;2023-04-19T00:59:01;17.23;;;9.32;;
78183;SDS011;67442;44.570;18.610;2023-04-19T01:01:28;16.85;;;7.93;;
78183;SDS011;67442;44.570;18.610;2023-04-19T01:03:56;19.02;;;9.50;;
78183;SDS011;67442;44.570;18.610;2023-04-19T01:06:23;20.13;;;9.52;;
78183;SDS011;67442;44.570;18.610;2023-04-19T01:08:52;19.35;;;8.45;;
78183;SDS011;67442;44.570;18.610;2023-04-19T01:11:19;18.48;;;8.30;;
78183;SDS011;67442;44.570;18.610;2023-04-19T01:13:50;19.48;;;9.05;;
78183;SDS011;67442;44.570;18.610;2023-04-19T01:16:20;17.50;;;8.80;;
78183;SDS011;67442;44.570;18.610;2023-04-19T01:18:48;19.02;;;8.18;;
78183;SDS011;67442;44.570;18.610;2023-04-19T01:21:19;22.52;;;8.65;;
78183;SDS011;67442;44.570;18.610;2023-04-19T01:23:47;18.08;;;8.15;;
78183;SDS011;67442;44.570;18.610;2023-04-19T01:26:13;17.67;;;8.38;;
78183;SDS011;67442;44.570;18.610;2023-04-19T01:28:41;18.58;;;8.35;;
78183;SDS011;67442;44.570;18.610;2023-04-19T01:31:09;17.05;;;9.32;;
78183;SDS011;67442;44.570;18.610;2023-04-19T01:33:36;17.33;;;7.95;;
78183;SDS011;67442;44.570;18.610;2023-04-19T01:36:03;16.33;;;8.48;;
78183;SDS011;67442;44.570;18.610;2023-04-19T01:38:31;16.02;;;8.38;;
78183;SDS011;67442;44.570;18.610;2023-04-19T01:40:59;17.45;;;8.77;;
78183;SDS011;67442;44.570;18.610;2023-04-19T01:43:27;20.83;;;9.57;;
78183;SDS011;67442;44.570;18.610;2023-04-19T01:45:54;17.95;;;8.25;;
78183;SDS011;67442;44.570;18.610;2023-04-19T01:48:21;20.17;;;9.43;;
78183;SDS011;67442;44.570;18.610;2023-04-19T01:50:48;19.50;;;8.23;;
78183;SDS011;67442;44.570;18.610;2023-04-19T01:53:19;18.23;;;8.43;;
78183;SDS011;67442;44.570;18.610;2023-04-19T01:55:47;15.40;;;8.25;;
78183;SDS011;67442;44.570;18.610;2023-04-19T01:58:18;19.23;;;8.43;;
78183;SDS011;67442;44.570;18.610;2023-04-19T02:00:45;17.55;;;8.00;;
78183;SDS011;67442;44.570;18.610;2023-04-19T02:03:16;18.02;;;8.48;;
78183;SDS011;67442;44.570;18.610;2023-04-19T02:05:44;16.60;;;8.13;;
78183;SDS011;67442;44.570;18.610;2023-04-19T02:08:11;20.05;;;8.93;;
78183;SDS011;67442;44.570;18.610;2023-04-19T02:10:38;20.65;;;8.15;;
78183;SDS011;67442;44.570;18.610;2023-04-19T02:13:09;15.68;;;8.43;;
78183;SDS011;67442;44.570;18.610;2023-04-19T02:15:36;20.83;;;8.70;;
78183;SDS011;67442;44.570;18.610;2023-04-19T02:18:04;16.75;;;8.38;;
78183;SDS011;67442;44.570;18.610;2023-04-19T02:20:31;17.10;;;8.13;;
78183;SDS011;67442;44.570;18.610;2023-04-19T02:22:58;16.55;;;8.05;;
78183;SDS011;67442;44.570;18.610;2023-04-19T02:25:26;15.60;;;8.27;;
78183;SDS011;67442;44.570;18.610;2023-04-19T02:27:53;16.45;;;8.13;;
78183;SDS011;67442;44.570;18.610;2023-04-19T02:30:20;15.73;;;8.40;;
78183;SDS011;67442;44.570;18.610;2023-04-19T02:32:47;16.63;;;7.88;;
78183;SDS011;67442;44.570;18.610;2023-04-19T02:35:15;15.50;;;8.25;;
78183;SDS011;67442;44.570;18.610;2023-04-19T02:37:42;19.67;;;8.38;;
78183;SDS011;67442;44.570;18.610;2023-04-19T02:40:14;17.83;;;8.05;;
78183;SDS011;67442;44.570;18.610;2023-04-19T02:42:41;18.05;;;8.45;;
78183;SDS011;67442;44.570;18.610;2023-04-19T02:45:08;15.18;;;8.20;;
78183;SDS011;67442;44.570;18.610;2023-04-19T02:47:36;18.23;;;7.25;;
78183;SDS011;67442;44.570;18.610;2023-04-19T02:50:09;14.52;;;7.47;;
78183;SDS011;67442;44.570;18.610;2023-04-19T02:52:36;14.27;;;7.43;;
78183;SDS011;67442;44.570;18.610;2023-04-19T02:55:02;17.63;;;8.40;;
78183;SDS011;67442;44.570;18.610;2023-04-19T02:57:30;13.57;;;7.80;;
78183;SDS011;67442;44.570;18.610;2023-04-19T02:59:57;14.15;;;7.70;;
78183;SDS011;67442;44.570;18.610;2023-04-19T03:02:25;13.68;;;7.40;;
78183;SDS011;67442;44.570;18.610;2023-04-19T03:04:52;18.58;;;8.32;;
78183;SDS011;67442;44.570;18.610;2023-04-19T03:07:20;16.88;;;7.95;;
78183;SDS011;67442;44.570;18.610;2023-04-19T03:09:46;13.52;;;7.07;;
78183;SDS011;67442;44.570;18.610;2023-04-19T03:12:13;13.82;;;7.68;;
78183;SDS011;67442;44.570;18.610;2023-04-19T03:14:41;16.23;;;8.07;;
78183;SDS011;67442;44.570;18.610;2023-04-19T03:17:11;17.25;;;8.30;;
78183;SDS011;67442;44.570;18.610;2023-04-19T03:19:38;14.40;;;7.65;;
78183;SDS011;67442;44.570;18.610;2023-04-19T03:22:06;17.83;;;7.68;;
78183;SDS011;67442;44.570;18.610;2023-04-19T03:24:33;15.32;;;7.63;;
78183;SDS011;67442;44.570;18.610;2023-04-19T03:27:01;16.70;;;7.15;;
78183;SDS011;67442;44.570;18.610;2023-04-19T03:29:29;15.23;;;7.57;;
78183;SDS011;67442;44.570;18.610;2023-04-19T03:31:56;15.40;;;7.30;;
78183;SDS011;67442;44.570;18.610;2023-04-19T03:34:27;13.85;;;6.95;;
78183;SDS011;67442;44.570;18.610;2023-04-19T03:36:54;16.45;;;7.70;;
78183;SDS011;67442;44.570;18.610;2023-04-19T03:39:21;13.95;;;7.10;;
78183;SDS011;67442;44.570;18.610;2023-04-19T03:41:48;12.15;;;6.88;;
78183;SDS011;67442;44.570;18.610;2023-04-19T03:44:19;16.02;;;7.80;;
78183;SDS011;67442;44.570;18.610;2023-04-19T03:46:50;12.82;;;6.95;;
78183;SDS011;67442;44.570;18.610;2023-04-19T03:49:21;11.75;;;6.70;;
78183;SDS011;67442;44.570;18.610;2023-04-19T03:51:49;12.57;;;6.75;;
78183;SDS011;67442;44.570;18.610;2023-04-19T03:54:15;14.57;;;7.47;;
78183;SDS011;67442;44.570;18.610;2023-04-19T03:56:43;11.57;;;6.95;;
78183;SDS011;67442;44.570;18.610;2023-04-19T03:59:10;14.90;;;6.93;;
78183;SDS011;67442;44.570;18.610;2023-04-19T04:01:37;13.88;;;7.18;;
78183;SDS011;67442;44.570;18.610;2023-04-19T04:04:07;11.38;;;6.72;;
78183;SDS011;67442;44.570;18.610;2023-04-19T04:06:38;14.02;;;6.93;;
78183;SDS011;67442;44.570;18.610;2023-04-19T04:09:09;14.18;;;6.97;;
78183;SDS011;67442;44.570;18.610;2023-04-19T04:11:41;13.45;;;6.82;;
78183;SDS011;67442;44.570;18.610;2023-04-19T04:14:08;13.60;;;7.10;;
78183;SDS011;67442;44.570;18.610;2023-04-19T04:16:35;12.90;;;6.13;;
78183;SDS011;67442;44.570;18.610;2023-04-19T04:19:06;13.18;;;7.10;;
78183;SDS011;67442;44.570;18.610;2023-04-19T04:21:34;14.50;;;7.22;;
78183;SDS011;67442;44.570;18.610;2023-04-19T04:24:01;14.63;;;7.05;;
78183;SDS011;67442;44.570;18.610;2023-04-19T04:26:29;12.82;;;6.75;;
78183;SDS011;67442;44.570;18.610;2023-04-19T04:28:58;13.55;;;6.97;;
78183;SDS011;67442;44.570;18.610;2023-04-19T04:31:29;12.38;;;6.50;;
78183;SDS011;67442;44.570;18.610;2023-04-19T04:33:56;14.68;;;7.13;;
78183;SDS011;67442;44.570;18.610;2023-04-19T04:36:27;14.57;;;6.97;;
78183;SDS011;67442;44.570;18.610;2023-04-19T04:38:55;14.48;;;6.90;;
78183;SDS011;67442;44.570;18.610;2023-04-19T04:41:22;15.15;;;7.45;;
78183;SDS011;67442;44.570;18.610;2023-04-19T04:43:49;39.80;;;9.88;;
78183;SDS011;67442;44.570;18.610;2023-04-19T04:46:18;33.35;;;9.90;;
78183;SDS011;67442;44.570;18.610;2023-04-19T04:48:45;59.15;;;12.10;;
78183;SDS011;67442;44.570;18.610;2023-04-19T04:51:12;106.20;;;20.95;;
78183;SDS011;67442;44.570;18.610;2023-04-19T04:53:39;120.25;;;22.70;;
78183;SDS011;67442;44.570;18.610;2023-04-19T04:56:06;98.30;;;22.20;;
78183;SDS011;67442;44.570;18.610;2023-04-19T04:58:34;104.75;;;21.65;;
78183;SDS011;67442;44.570;18.610;2023-04-19T05:01:01;104.32;;;21.90;;
78183;SDS011;67442;44.570;18.610;2023-04-19T05:03:29;98.85;;;21.73;;
78183;SDS011;67442;44.570;18.610;2023-04-19T05:06:00;94.20;;;20.80;;
78183;SDS011;67442;44.570;18.610;2023-04-19T05:08:27;75.13;;;20.08;;
78183;SDS011;67442;44.570;18.610;2023-04-19T05:10:54;103.97;;;21.20;;
78183;SDS011;67442;44.570;18.610;2023-04-19T05:13:22;81.65;;;19.98;;
78183;SDS011;67442;44.570;18.610;2023-04-19T05:15:49;75.88;;;18.40;;
78183;SDS011;67442;44.570;18.610;2023-04-19T05:18:16;91.50;;;20.92;;
78183;SDS011;67442;44.570;18.610;2023-04-19T05:20:43;76.30;;;17.45;;
78183;SDS011;67442;44.570;18.610;2023-04-19T05:23:15;70.40;;;17.45;;
78183;SDS011;67442;44.570;18.610;2023-04-19T05:25:43;66.43;;;18.63;;
78183;SDS011;67442;44.570;18.610;2023-04-19T05:28:11;72.38;;;17.98;;
78183;SDS011;67442;44.570;18.610;2023-04-19T05:30:37;71.53;;;16.77;;
78183;SDS011;67442;44.570;18.610;2023-04-19T05:33:05;63.95;;;16.48;;
78183;SDS011;67442;44.570;18.610;2023-04-19T05:35:32;72.88;;;18.02;;
78183;SDS011;67442;44.570;18.610;2023-04-19T05:38:03;73.65;;;17.90;;
78183;SDS011;67442;44.570;18.610;2023-04-19T05:40:31;61.03;;;15.40;;
78183;SDS011;67442;44.570;18.610;2023-04-19T05:43:00;60.55;;;15.60;;
78183;SDS011;67442;44.570;18.610;2023-04-19T05:45:27;45.50;;;15.43;;
78183;SDS011;67442;44.570;18.610;2023-04-19T05:47:55;56.72;;;15.48;;
78183;SDS011;67442;44.570;18.610;2023-04-19T05:50:22;57.03;;;15.75;;
78183;SDS011;67442;44.570;18.610;2023-04-19T05:52:50;54.33;;;14.50;;
78183;SDS011;67442;44.570;18.610;2023-04-19T05:55:17;49.90;;;14.45;;
78183;SDS011;67442;44.570;18.610;2023-04-19T05:57:48;53.45;;;14.40;;
78183;SDS011;67442;44.570;18.610;2023-04-19T06:00:16;52.72;;;14.73;;
78183;SDS011;67442;44.570;18.610;2023-04-19T06:02:44;54.70;;;14.27;;
78183;SDS011;67442;44.570;18.610;2023-04-19T06:05:11;46.17;;;14.85;;
78183;SDS011;67442;44.570;18.610;2023-04-19T06:07:39;53.42;;;14.68;;
78183;SDS011;67442;44.570;18.610;2023-04-19T06:10:06;56.47;;;14.88;;
78183;SDS011;67442;44.570;18.610;2023-04-19T06:12:35;49.95;;;14.07;;
78183;SDS011;67442;44.570;18.610;2023-04-19T06:15:02;42.08;;;13.10;;
78183;SDS011;67442;44.570;18.610;2023-04-19T06:17:30;41.88;;;14.13;;
78183;SDS011;67442;44.570;18.610;2023-04-19T06:19:57;43.38;;;13.73;;
78183;SDS011;67442;44.570;18.610;2023-04-19T06:22:25;43.33;;;13.73;;
78183;SDS011;67442;44.570;18.610;2023-04-19T06:24:56;45.75;;;14.00;;
78183;SDS011;67442;44.570;18.610;2023-04-19T06:27:23;42.63;;;13.30;;
78183;SDS011;67442;44.570;18.610;2023-04-19T06:29:50;43.25;;;14.38;;
78183;SDS011;67442;44.570;18.610;2023-04-19T06:32:18;39.35;;;12.55;;
78183;SDS011;67442;44.570;18.610;2023-04-19T06:34:45;45.28;;;14.73;;
78183;SDS011;67442;44.570;18.610;2023-04-19T06:37:16;51.28;;;14.13;;
78183;SDS011;67442;44.570;18.610;2023-04-19T06:39:47;43.25;;;13.50;;
78183;SDS011;67442;44.570;18.610;2023-04-19T06:42:14;50.80;;;14.52;;
78183;SDS011;67442;44.570;18.610;2023-04-19T06:44:44;46.53;;;13.35;;
78183;SDS011;67442;44.570;18.610;2023-04-19T06:47:11;46.03;;;13.52;;
78183;SDS011;67442;44.570;18.610;2023-04-19T06:49:39;42.65;;;12.82;;
78183;SDS011;67442;44.570;18.610;2023-04-19T06:52:10;36.47;;;12.27;;
78183;SDS011;67442;44.570;18.610;2023-04-19T06:54:41;45.35;;;14.27;;
78183;SDS011;67442;44.570;18.610;2023-04-19T06:57:12;42.72;;;12.45;;
78183;SDS011;67442;44.570;18.610;2023-04-19T06:59:39;48.03;;;13.77;;
78183;SDS011;67442;44.570;18.610;2023-04-19T07:02:06;41.35;;;12.75;;
78183;SDS011;67442;44.570;18.610;2023-04-19T07:04:33;35.95;;;12.45;;
78183;SDS011;67442;44.570;18.610;2023-04-19T07:07:01;37.92;;;12.90;;
78183;SDS011;67442;44.570;18.610;2023-04-19T07:09:29;34.85;;;12.35;;
78183;SDS011;67442;44.570;18.610;2023-04-19T07:11:56;34.53;;;12.45;;
78183;SDS011;67442;44.570;18.610;2023-04-19T07:14:24;41.70;;;12.68;;
78183;SDS011;67442;44.570;18.610;2023-04-19T07:16:54;37.65;;;12.82;;
78183;SDS011;67442;44.570;18.610;2023-04-19T07:19:25;34.67;;;12.73;;
78183;SDS011;67442;44.570;18.610;2023-04-19T07:21:53;40.28;;;12.70;;
78183;SDS011;67442;44.570;18.610;2023-04-19T07:24:21;35.38;;;12.68;;
78183;SDS011;67442;44.570;18.610;2023-04-19T07:26:48;39.72;;;12.75;;
78183;SDS011;67442;44.570;18.610;2023-04-19T07:29:15;33.72;;;11.45;;
78183;SDS011;67442;44.570;18.610;2023-04-19T07:31:43;40.08;;;11.65;;
78183;SDS011;67442;44.570;18.610;2023-04-19T07:34:14;34.10;;;11.68;;
78183;SDS011;67442;44.570;18.610;2023-04-19T07:36:42;34.78;;;12.63;;
78183;SDS011;67442;44.570;18.610;2023-04-19T07:39:09;37.83;;;11.82;;
78183;SDS011;67442;44.570;18.610;2023-04-19T07:41:37;36.38;;;11.85;;
78183;SDS011;67442;44.570;18.610;2023-04-19T07:44:05;37.22;;;12.35;;
78183;SDS011;67442;44.570;18.610;2023-04-19T07:46:32;37.17;;;11.45;;
78183;SDS011;67442;44.570;18.610;2023-04-19T07:49:03;35.17;;;12.38;;
78183;SDS011;67442;44.570;18.610;2023-04-19T07:51:30;30.60;;;10.32;;
78183;SDS011;67442;44.570;18.610;2023-04-19T07:53:57;39.78;;;11.65;;
78183;SDS011;67442;44.570;18.610;2023-04-19T07:56:24;36.22;;;11.38;;
78183;SDS011;67442;44.570;18.610;2023-04-19T07:58:51;33.38;;;10.85;;
78183;SDS011;67442;44.570;18.610;2023-04-19T08:01:19;31.52;;;11.43;;
78183;SDS011;67442;44.570;18.610;2023-04-19T08:03:46;33.22;;;11.23;;
78183;SDS011;67442;44.570;18.610;2023-04-19T08:06:14;29.27;;;11.40;;
78183;SDS011;67442;44.570;18.610;2023-04-19T08:08:42;33.30;;;10.68;;
78183;SDS011;67442;44.570;18.610;2023-04-19T08:11:09;34.38;;;11.35;;
78183;SDS011;67442;44.570;18.610;2023-04-19T08:13:36;34.50;;;10.82;;
78183;SDS011;67442;44.570;18.610;2023-04-19T08:16:04;32.28;;;11.15;;
78183;SDS011;67442;44.570;18.610;2023-04-19T08:18:31;31.83;;;10.50;;
78183;SDS011;67442;44.570;18.610;2023-04-19T08:21:00;35.70;;;11.40;;
78183;SDS011;67442;44.570;18.610;2023-04-19T08:23:28;29.25;;;11.23;;
78183;SDS011;67442;44.570;18.610;2023-04-19T08:25:55;35.78;;;10.65;;
78183;SDS011;67442;44.570;18.610;2023-04-19T08:28:23;34.03;;;11.25;;
78183;SDS011;67442;44.570;18.610;2023-04-19T08:30:50;30.67;;;11.07;;
78183;SDS011;67442;44.570;18.610;2023-04-19T08:33:17;25.83;;;10.40;;
78183;SDS011;67442;44.570;18.610;2023-04-19T08:35:45;28.45;;;10.77;;
78183;SDS011;67442;44.570;18.610;2023-04-19T08:38:12;30.23;;;10.43;;
78183;SDS011;67442;44.570;18.610;2023-04-19T08:40:40;33.10;;;10.90;;
78183;SDS011;67442;44.570;18.610;2023-04-19T08:43:16;29.77;;;10.10;;
78183;SDS011;67442;44.570;18.610;2023-04-19T08:45:45;27.98;;;10.32;;
78183;SDS011;67442;44.570;18.610;2023-04-19T08:48:16;33.75;;;10.75;;
78183;SDS011;67442;44.570;18.610;2023-04-19T08:50:43;28.65;;;10.88;;
78183;SDS011;67442;44.570;18.610;2023-04-19T08:53:13;27.58;;;10.95;;
78183;SDS011;67442;44.570;18.610;2023-04-19T08:55:41;31.17;;;10.80;;
78183;SDS011;67442;44.570;18.610;2023-04-19T08:58:11;27.05;;;10.30;;
78183;SDS011;67442;44.570;18.610;2023-04-19T09:00:38;29.20;;;9.88;;
78183;SDS011;67442;44.570;18.610;2023-04-19T09:03:06;26.92;;;10.52;;
78183;SDS011;67442;44.570;18.610;2023-04-19T09:05:33;22.42;;;9.27;;
78183;SDS011;67442;44.570;18.610;2023-04-19T09:11:06;28.70;;;9.95;;
78183;SDS011;67442;44.570;18.610;2023-04-19T09:13:33;27.30;;;10.30;;
78183;SDS011;67442;44.570;18.610;2023-04-19T09:16:05;27.65;;;10.48;;
78183;SDS011;67442;44.570;18.610;2023-04-19T09:18:52;23.98;;;9.70;;
78183;SDS011;67442;44.570;18.610;2023-04-19T09:21:26;25.10;;;9.88;;
78183;SDS011;67442;44.570;18.610;2023-04-19T09:23:58;28.58;;;9.80;;
78183;SDS011;67442;44.570;18.610;2023-04-19T09:26:25;26.85;;;9.88;;
78183;SDS011;67442;44.570;18.610;2023-04-19T09:31:27;22.08;;;9.55;;
78183;SDS011;67442;44.570;18.610;2023-04-19T09:34:11;29.45;;;9.85;;
78183;SDS011;67442;44.570;18.610;2023-04-19T09:36:39;25.63;;;9.85;;
78183;SDS011;67442;44.570;18.610;2023-04-19T09:39:06;27.90;;;9.93;;
78183;SDS011;67442;44.570;18.610;2023-04-19T09:41:32;31.10;;;9.70;;
78183;SDS011;67442;44.570;18.610;2023-04-19T09:44:11;25.02;;;10.07;;
78183;SDS011;67442;44.570;18.610;2023-04-19T09:46:40;25.85;;;10.35;;
78183;SDS011;67442;44.570;18.610;2023-04-19T09:49:14;23.02;;;9.77;;
78183;SDS011;67442;44.570;18.610;2023-04-19T09:52:06;22.48;;;9.63;;
78183;SDS011;67442;44.570;18.610;2023-04-19T09:54:35;20.45;;;9.05;;
78183;SDS011;67442;44.570;18.610;2023-04-19T09:57:04;26.17;;;10.20;;
78183;SDS011;67442;44.570;18.610;2023-04-19T09:59:31;26.02;;;9.65;;
78183;SDS011;67442;44.570;18.610;2023-04-19T10:01:59;25.17;;;9.00;;
78183;SDS011;67442;44.570;18.610;2023-04-19T10:04:28;22.63;;;8.10;;
78183;SDS011;67442;44.570;18.610;2023-04-19T10:06:56;23.65;;;9.02;;
78183;SDS011;67442;44.570;18.610;2023-04-19T10:09:23;22.50;;;8.32;;
78183;SDS011;67442;44.570;18.610;2023-04-19T10:11:52;27.52;;;9.55;;
78183;SDS011;67442;44.570;18.610;2023-04-19T10:14:21;26.52;;;10.18;;
78183;SDS011;67442;44.570;18.610;2023-04-19T10:16:49;22.58;;;10.18;;
78183;SDS011;67442;44.570;18.610;2023-04-19T10:19:20;22.58;;;9.38;;
78183;SDS011;67442;44.570;18.610;2023-04-19T10:21:48;21.80;;;9.43;;
78183;SDS011;67442;44.570;18.610;2023-04-19T10:24:16;24.58;;;9.55;;
78183;SDS011;67442;44.570;18.610;2023-04-19T10:32:44;23.70;;;10.23;;
78183;SDS011;67442;44.570;18.610;2023-04-19T10:41:00;23.17;;;8.93;;
78183;SDS011;67442;44.570;18.610;2023-04-19T10:43:32;23.88;;;9.15;;
78183;SDS011;67442;44.570;18.610;2023-04-19T10:46:01;23.58;;;9.45;;
78183;SDS011;67442;44.570;18.610;2023-04-19T10:48:32;22.27;;;9.45;;
78183;SDS011;67442;44.570;18.610;2023-04-19T10:51:16;22.92;;;8.80;;
78183;SDS011;67442;44.570;18.610;2023-04-19T10:56:19;20.00;;;8.65;;
78183;SDS011;67442;44.570;18.610;2023-04-19T11:01:45;21.27;;;9.57;;
78183;SDS011;67442;44.570;18.610;2023-04-19T11:04:22;22.65;;;9.18;;
78183;SDS011;67442;44.570;18.610;2023-04-19T11:06:55;21.20;;;9.20;;
78183;SDS011;67442;44.570;18.610;2023-04-19T11:12:07;20.20;;;9.13;;
78183;SDS011;67442;44.570;18.610;2023-04-19T11:17:34;19.40;;;8.65;;
78183;SDS011;67442;44.570;18.610;2023-04-19T11:20:06;19.08;;;8.98;;
78183;SDS011;67442;44.570;18.610;2023-04-19T11:22:43;19.90;;;9.07;;
78183;SDS011;67442;44.570;18.610;2023-04-19T11:27:41;19.30;;;8.75;;
78183;SDS011;67442;44.570;18.610;2023-04-19T11:32:48;20.10;;;8.80;;
78183;SDS011;67442;44.570;18.610;2023-04-19T11:35:21;17.92;;;7.90;;
78183;SDS011;67442;44.570;18.610;2023-04-19T11:37:50;21.45;;;8.98;;
78183;SDS011;67442;44.570;18.610;2023-04-19T11:40:18;20.17;;;8.10;;
78183;SDS011;67442;44.570;18.610;2023-04-19T11:42:48;20.35;;;8.90;;
78183;SDS011;67442;44.570;18.610;2023-04-19T11:45:32;20.17;;;8.85;;
78183;SDS011;67442;44.570;18.610;2023-04-19T11:48:06;17.02;;;8.25;;
78183;SDS011;67442;44.570;18.610;2023-04-19T11:53:18;21.38;;;8.95;;
78183;SDS011;67442;44.570;18.610;2023-04-19T11:55:51;16.25;;;8.80;;
78183;SDS011;67442;44.570;18.610;2023-04-19T12:00:54;22.30;;;8.57;;
78183;SDS011;67442;44.570;18.610;2023-04-19T12:03:22;17.70;;;8.05;;
78183;SDS011;67442;44.570;18.610;2023-04-19T12:05:56;18.77;;;8.40;;
78183;SDS011;67442;44.570;18.610;2023-04-19T12:08:31;17.90;;;9.02;;
78183;SDS011;67442;44.570;18.610;2023-04-19T12:10:59;16.58;;;7.90;;
78183;SDS011;67442;44.570;18.610;2023-04-19T12:13:30;19.55;;;8.43;;
78183;SDS011;67442;44.570;18.610;2023-04-19T12:15:58;19.45;;;8.10;;
78183;SDS011;67442;44.570;18.610;2023-04-19T12:18:26;17.75;;;7.95;;
78183;SDS011;67442;44.570;18.610;2023-04-19T12:20:57;22.58;;;9.23;;
78183;SDS011;67442;44.570;18.610;2023-04-19T12:23:28;17.00;;;8.10;;
78183;SDS011;67442;44.570;18.610;2023-04-19T12:25:55;16.25;;;7.50;;
78183;SDS011;67442;44.570;18.610;2023-04-19T12:28:23;18.95;;;8.50;;
78183;SDS011;67442;44.570;18.610;2023-04-19T12:30:50;19.70;;;8.35;;
78183;SDS011;67442;44.570;18.610;2023-04-19T12:33:21;18.58;;;8.48;;
78183;SDS011;67442;44.570;18.610;2023-04-19T12:35:49;16.40;;;8.00;;
78183;SDS011;67442;44.570;18.610;2023-04-19T12:38:16;17.40;;;8.57;;
78183;SDS011;67442;44.570;18.610;2023-04-19T12:40:43;18.52;;;8.05;;
78183;SDS011;67442;44.570;18.610;2023-04-19T12:43:11;16.17;;;7.20;;
78183;SDS011;67442;44.570;18.610;2023-04-19T12:45:38;18.48;;;8.13;;
78183;SDS011;67442;44.570;18.610;2023-04-19T12:48:05;20.15;;;7.55;;
78183;SDS011;67442;44.570;18.610;2023-04-19T12:50:33;19.40;;;8.98;;
78183;SDS011;67442;44.570;18.610;2023-04-19T12:53:00;15.57;;;7.88;;
78183;SDS011;67442;44.570;18.610;2023-04-19T12:55:28;18.33;;;7.65;;
78183;SDS011;67442;44.570;18.610;2023-04-19T12:57:56;18.85;;;8.23;;
78183;SDS011;67442;44.570;18.610;2023-04-19T13:00:23;16.17;;;8.55;;
78183;SDS011;67442;44.570;18.610;2023-04-19T13:02:55;17.80;;;7.70;;
78183;SDS011;67442;44.570;18.610;2023-04-19T13:05:22;17.30;;;7.47;;
78183;SDS011;67442;44.570;18.610;2023-04-19T13:07:53;14.98;;;7.43;;
78183;SDS011;67442;44.570;18.610;2023-04-19T13:10:25;18.73;;;8.07;;
78183;SDS011;67442;44.570;18.610;2023-04-19T13:12:51;17.75;;;7.05;;
78183;SDS011;67442;44.570;18.610;2023-04-19T13:15:18;18.60;;;7.85;;
78183;SDS011;67442;44.570;18.610;2023-04-19T13:17:46;14.38;;;7.00;;
78183;SDS011;67442;44.570;18.610;2023-04-19T13:20:13;15.63;;;7.90;;
78183;SDS011;67442;44.570;18.610;2023-04-19T13:22:41;15.18;;;7.53;;
78183;SDS011;67442;44.570;18.610;2023-04-19T13:25:08;16.27;;;7.22;;
78183;SDS011;67442;44.570;18.610;2023-04-19T13:27:36;16.30;;;7.68;;
78183;SDS011;67442;44.570;18.610;2023-04-19T13:30:07;14.80;;;7.43;;
78183;SDS011;67442;44.570;18.610;2023-04-19T13:32:35;15.20;;;7.38;;
78183;SDS011;67442;44.570;18.610;2023-04-19T13:35:02;15.77;;;8.30;;
78183;SDS011;67442;44.570;18.610;2023-04-19T13:37:30;18.55;;;7.75;;
78183;SDS011;67442;44.570;18.610;2023-04-19T13:39:57;15.95;;;7.55;;
78183;SDS011;67442;44.570;18.610;2023-04-19T13:42:24;17.13;;;7.38;;
78183;SDS011;67442;44.570;18.610;2023-04-19T13:44:56;17.35;;;7.53;;
78183;SDS011;67442;44.570;18.610;2023-04-19T13:47:23;15.23;;;6.65;;
78183;SDS011;67442;44.570;18.610;2023-04-19T13:49:50;14.05;;;7.28;;
78183;SDS011;67442;44.570;18.610;2023-04-19T13:52:18;15.10;;;7.22;;
78183;SDS011;67442;44.570;18.610;2023-04-19T13:54:45;14.27;;;6.93;;
78183;SDS011;67442;44.570;18.610;2023-04-19T13:57:12;14.52;;;6.18;;
78183;SDS011;67442;44.570;18.610;2023-04-19T13:59:39;15.50;;;8.00;;
78183;SDS011;67442;44.570;18.610;2023-04-19T14:02:07;17.48;;;7.32;;
78183;SDS011;67442;44.570;18.610;2023-04-19T14:04:34;15.95;;;7.32;;
78183;SDS011;67442;44.570;18.610;2023-04-19T14:07:01;14.43;;;6.95;;
78183;SDS011;67442;44.570;18.610;2023-04-19T14:09:28;14.65;;;6.93;;
78183;SDS011;67442;44.570;18.610;2023-04-19T14:11:59;14.77;;;7.00;;
78183;SDS011;67442;44.570;18.610;2023-04-19T14:14:27;13.90;;;7.30;;
78183;SDS011;67442;44.570;18.610;2023-04-19T14:16:54;15.25;;;6.50;;
78183;SDS011;67442;44.570;18.610;2023-04-19T14:19:22;14.35;;;6.70;;
78183;SDS011;67442;44.570;18.610;2023-04-19T14:21:54;15.32;;;6.80;;
78183;SDS011;67442;44.570;18.610;2023-04-19T14:24:20;12.60;;;6.45;;
78183;SDS011;67442;44.570;18.610;2023-04-19T14:26:48;13.27;;;6.15;;
78183;SDS011;67442;44.570;18.610;2023-04-19T14:29:15;13.90;;;6.85;;
78183;SDS011;67442;44.570;18.610;2023-04-19T14:31:42;12.65;;;6.55;;
78183;SDS011;67442;44.570;18.610;2023-04-19T14:34:10;14.55;;;7.68;;
78183;SDS011;67442;44.570;18.610;2023-04-19T14:36:38;12.43;;;6.43;;
78183;SDS011;67442;44.570;18.610;2023-04-19T14:39:06;14.45;;;6.63;;
78183;SDS011;67442;44.570;18.610;2023-04-19T14:41:33;13.50;;;6.82;;
78183;SDS011;67442;44.570;18.610;2023-04-19T14:44:01;12.45;;;6.55;;
78183;SDS011;67442;44.570;18.610;2023-04-19T14:46:32;14.02;;;6.60;;
78183;SDS011;67442;44.570;18.610;2023-04-19T14:49:00;12.95;;;5.95;;
78183;SDS011;67442;44.570;18.610;2023-04-19T14:51:31;14.50;;;6.35;;
78183;SDS011;67442;44.570;18.610;2023-04-19T14:54:01;16.63;;;7.22;;
78183;SDS011;67442;44.570;18.610;2023-04-19T14:56:28;12.95;;;6.55;;
78183;SDS011;67442;44.570;18.610;2023-04-19T14:58:55;14.13;;;7.05;;
78183;SDS011;67442;44.570;18.610;2023-04-19T15:01:23;11.90;;;6.43;;
78183;SDS011;67442;44.570;18.610;2023-04-19T15:03:50;12.25;;;6.57;;